Time;durP1;ratioP1;P1;durP2;ratioP2;P2;SDS_P1;SDS_P2;PMS_P1;PMS_P2;Temp;Humidity;BMP_temperature;BMP_pressure;BME280_temperature;BME280_humidity;BME280_pressure;Samples;Min_cycle;Max_cycle;Signal;HPM_P1;HPM_P2
2024/03/17 00:00:34;;;;;;;32.80;30.80;;;;;;;;;;5115041;27;20100;-59
2024/03/17 00:03:00;;;;;;;38.60;36.60;;;;;;;;;;5120363;27;20039;-59
2024/03/17 00:05:25;;;;;;;38.78;36.75;;;;;;;;;;5116095;27;20030;-59
2024/03/17 00:07:50;;;;;;;35.55;33.70;;;;;;;;;;5116100;27;20038;-54
2024/03/17 00:10:16;;;;;;;32.10;30.30;;;;;;;;;;5116110;27;20027;-59
2024/03/17 00:12:41;;;;;;;31.48;29.25;;;;;;;;;;5116927;27;20109;-55
2024/03/17 00:15:08;;;;;;;31.52;29.85;;;;;;;;;;5117063;27;20486;-55
2024/03/17 00:17:34;;;;;;;29.48;27.90;;;;;;;;;;5116650;27;20063;-55
2024/03/17 00:20:08;;;;;;;30.55;28.95;;;;;;;;;;5116263;27;20116;-56
2024/03/17 00:22:37;;;;;;;29.13;27.60;;;;;;;;;;5117418;27;20046;-51
2024/03/17 00:25:03;;;;;;;29.95;28.27;;;;;;;;;;5093715;27;20043;-59
2024/03/17 00:27:28;;;;;;;28.50;26.98;;;;;;;;;;5118708;27;20050;-54
2024/03/17 00:29:54;;;;;;;30.13;28.33;;;;;;;;;;5117427;27;20036;-59
2024/03/17 00:32:19;;;;;;;29.60;27.90;;;;;;;;;;5117006;27;20051;-59
2024/03/17 00:34:44;;;;;;;29.90;28.35;;;;;;;;;;5116268;27;20637;-58
2024/03/17 00:37:10;;;;;;;32.38;30.67;;;;;;;;;;5092618;27;20038;-55
2024/03/17 00:39:35;;;;;;;35.45;33.60;;;;;;;;;;5117617;27;20039;-59
2024/03/17 00:42:01;;;;;;;38.45;36.47;;;;;;;;;;5098331;27;20040;-59
2024/03/17 00:44:26;;;;;;;42.13;39.97;;;;;;;;;;5119598;27;20034;-59
2024/03/17 00:46:52;;;;;;;43.70;41.47;;;;;;;;;;5117255;27;20027;-59
2024/03/17 00:49:17;;;;;;;44.67;42.38;;;;;;;;;;5118750;27;20130;-59
2024/03/17 00:51:42;;;;;;;43.47;41.28;;;;;;;;;;5113983;27;20023;-55
2024/03/17 00:54:08;;;;;;;48.70;46.22;;;;;;;;;;5118226;27;20353;-59
2024/03/17 00:56:33;;;;;;;44.38;42.10;;;;;;;;;;5116843;27;20679;-59
2024/03/17 00:58:59;;;;;;;41.63;39.47;;;;;;;;;;5099619;27;20123;-59
2024/03/17 01:01:24;;;;;;;39.90;37.83;;;;;;;;;;5114675;27;20050;-59
2024/03/17 01:03:50;;;;;;;43.92;41.70;;;;;;;;;;5117845;27;20035;-52
2024/03/17 01:06:15;;;;;;;46.72;44.35;;;;;;;;;;5112104;27;20039;-54
2024/03/17 01:08:41;;;;;;;42.03;39.63;;;;;;;;;;5113543;27;20040;-54
2024/03/17 01:11:08;;;;;;;42.13;39.97;;;;;;;;;;5115311;27;20039;-55
2024/03/17 01:13:37;;;;;;;42.08;39.85;;;;;;;;;;5116534;27;20410;-54
2024/03/17 01:16:02;;;;;;;39.78;37.72;;;;;;;;;;5115633;27;20042;-54
2024/03/17 01:18:28;;;;;;;38.85;36.85;;;;;;;;;;5114234;27;20019;-55
2024/03/17 01:20:53;;;;;;;36.70;34.75;;;;;;;;;;5117200;27;20615;-55
2024/03/17 01:23:18;;;;;;;39.22;37.17;;;;;;;;;;5097010;27;20779;-55
2024/03/17 01:25:44;;;;;;;39.00;36.95;;;;;;;;;;5100427;27;20428;-54
2024/03/17 01:28:09;;;;;;;43.35;41.13;;;;;;;;;;5117995;27;20437;-52
2024/03/17 01:30:34;;;;;;;40.33;38.10;;;;;;;;;;5115954;27;20027;-54
2024/03/17 01:33:00;;;;;;;39.28;37.17;;;;;;;;;;5113869;27;20023;-59
2024/03/17 01:35:26;;;;;;;40.90;38.80;;;;;;;;;;5077868;27;20045;-52
2024/03/17 01:37:51;;;;;;;40.65;38.55;;;;;;;;;;5115751;27;20034;-59
2024/03/17 01:40:17;;;;;;;44.15;41.83;;;;;;;;;;5116915;27;20035;-53
2024/03/17 01:42:43;;;;;;;41.58;39.42;;;;;;;;;;5114899;27;20035;-56
2024/03/17 01:45:25;;;;;;;43.60;41.38;;;;;;;;;;5113490;27;20035;-60
2024/03/17 01:47:51;;;;;;;45.30;42.97;;;;;;;;;;5116144;27;20420;-60
2024/03/17 01:50:18;;;;;;;45.35;43.05;;;;;;;;;;5114662;27;20063;-59
2024/03/17 01:52:46;;;;;;;43.78;41.47;;;;;;;;;;5116575;27;20035;-59
2024/03/17 01:55:12;;;;;;;47.22;44.83;;;;;;;;;;5116197;27;20042;-59
2024/03/17 01:57:38;;;;;;;44.78;42.47;;;;;;;;;;5113924;27;20032;-54
2024/03/17 02:00:08;;;;;;;45.38;43.08;;;;;;;;;;5112006;27;20042;-55
2024/03/17 02:02:34;;;;;;;46.58;44.10;;;;;;;;;;5114231;27;20035;-59
2024/03/17 02:04:59;;;;;;;43.55;41.20;;;;;;;;;;5112466;27;20046;-54
2024/03/17 02:07:24;;;;;;;45.95;43.58;;;;;;;;;;5098782;27;20039;-59
2024/03/17 02:09:50;;;;;;;46.45;44.00;;;;;;;;;;5113485;27;20074;-59
2024/03/17 02:12:15;;;;;;;44.33;41.83;;;;;;;;;;5113348;27;20050;-55
2024/03/17 02:14:40;;;;;;;47.78;45.30;;;;;;;;;;5112707;27;20043;-54
2024/03/17 02:17:06;;;;;;;48.65;46.10;;;;;;;;;;5114158;27;20034;-59
2024/03/17 02:19:31;;;;;;;52.13;48.75;;;;;;;;;;5115047;27;20031;-59
2024/03/17 02:21:57;;;;;;;50.50;47.85;;;;;;;;;;5094045;27;20565;-53
2024/03/17 02:24:22;;;;;;;46.92;44.47;;;;;;;;;;5112577;27;20035;-59
2024/03/17 02:26:47;;;;;;;43.00;40.70;;;;;;;;;;5112778;27;20096;-59
2024/03/17 02:29:13;;;;;;;40.83;38.53;;;;;;;;;;5112803;27;20567;-59
2024/03/17 02:31:38;;;;;;;37.38;35.45;;;;;;;;;;5112691;27;20272;-59
2024/03/17 02:34:03;;;;;;;35.60;33.70;;;;;;;;;;5095734;27;20031;-55
2024/03/17 02:36:29;;;;;;;36.03;33.83;;;;;;;;;;5113161;27;20035;-60
2024/03/17 02:41:42;;;;;;;33.63;31.83;;;;;;;;;;5112529;27;20028;-54
2024/03/17 02:44:07;;;;;;;30.90;29.25;;;;;;;;;;5112734;27;20031;-55
2024/03/17 02:46:34;;;;;;;30.50;28.85;;;;;;;;;;5115314;27;20151;-55
2024/03/17 02:48:59;;;;;;;35.33;33.45;;;;;;;;;;5113493;27;20035;-55
2024/03/17 02:51:25;;;;;;;35.40;33.20;;;;;;;;;;5113104;27;20039;-53
2024/03/17 02:53:50;;;;;;;36.13;34.22;;;;;;;;;;5113075;27;20063;-55
2024/03/17 02:56:17;;;;;;;34.10;32.25;;;;;;;;;;5113980;27;20027;-55
2024/03/17 02:58:45;;;;;;;36.00;34.13;;;;;;;;;;5114033;27;20038;-55
2024/03/17 03:01:10;;;;;;;34.15;32.38;;;;;;;;;;5113084;27;20047;-59
2024/03/17 03:03:36;;;;;;;33.42;31.67;;;;;;;;;;5112767;27;20035;-59
2024/03/17 03:06:04;;;;;;;31.15;29.50;;;;;;;;;;5114543;27;20601;-54
2024/03/17 03:08:30;;;;;;;35.03;33.22;;;;;;;;;;5089338;28;20660;-54
2024/03/17 03:10:55;;;;;;;31.27;29.63;;;;;;;;;;5114153;27;20062;-55
2024/03/17 03:13:21;;;;;;;35.05;33.22;;;;;;;;;;5113238;27;20038;-53
2024/03/17 03:15:47;;;;;;;32.00;30.15;;;;;;;;;;5111795;27;20073;-54
2024/03/17 03:18:13;;;;;;;31.52;29.88;;;;;;;;;;5114334;27;20028;-52
2024/03/17 03:20:38;;;;;;;32.03;30.33;;;;;;;;;;5110156;27;20103;-54
2024/03/17 03:23:04;;;;;;;33.35;31.60;;;;;;;;;;5112521;28;20105;-51
2024/03/17 03:25:29;;;;;;;36.05;34.22;;;;;;;;;;5112711;28;20039;-59
2024/03/17 03:27:57;;;;;;;37.47;35.58;;;;;;;;;;5114181;28;20034;-59
2024/03/17 03:30:23;;;;;;;40.80;38.70;;;;;;;;;;5115978;27;20110;-59
2024/03/17 03:32:48;;;;;;;37.25;35.33;;;;;;;;;;5115067;27;20162;-59
2024/03/17 03:35:14;;;;;;;35.55;33.63;;;;;;;;;;5116251;27;20455;-59
2024/03/17 03:37:40;;;;;;;32.47;30.70;;;;;;;;;;5117417;27;20039;-59
2024/03/17 03:40:16;;;;;;;33.47;31.73;;;;;;;;;;5115813;27;20111;-49
2024/03/17 03:42:42;;;;;;;31.58;29.90;;;;;;;;;;5116019;27;20118;-59
2024/03/17 03:45:08;;;;;;;31.85;30.20;;;;;;;;;;5117662;27;20031;-55
2024/03/17 03:47:34;;;;;;;32.95;31.20;;;;;;;;;;5117818;27;20034;-54
2024/03/17 03:49:59;;;;;;;31.73;30.08;;;;;;;;;;5116343;27;20130;-60
2024/03/17 03:52:24;;;;;;;29.80;28.20;;;;;;;;;;5116254;27;20126;-52
2024/03/17 03:54:52;;;;;;;29.65;28.05;;;;;;;;;;5114620;27;20679;-59
2024/03/17 03:57:17;;;;;;;32.20;30.50;;;;;;;;;;5116938;27;20066;-60
2024/03/17 03:59:43;;;;;;;34.25;32.45;;;;;;;;;;5113360;27;20136;-59
2024/03/17 04:02:09;;;;;;;36.45;34.55;;;;;;;;;;5116304;27;20113;-53
2024/03/17 04:04:35;;;;;;;38.92;36.83;;;;;;;;;;5116088;27;20019;-52
2024/03/17 04:07:00;;;;;;;41.97;39.85;;;;;;;;;;5114935;27;20372;-54
2024/03/17 04:09:25;;;;;;;41.72;39.47;;;;;;;;;;5117586;27;20122;-53
2024/03/17 04:11:51;;;;;;;40.67;38.58;;;;;;;;;;5117174;27;20042;-52
2024/03/17 04:14:16;;;;;;;39.58;37.55;;;;;;;;;;5118488;27;20115;-54
2024/03/17 04:16:41;;;;;;;38.67;36.65;;;;;;;;;;5118447;27;20028;-55
2024/03/17 04:19:08;;;;;;;33.00;31.30;;;;;;;;;;5113615;27;20031;-59
2024/03/17 04:21:34;;;;;;;31.40;29.75;;;;;;;;;;5114022;27;20046;-59
2024/03/17 04:23:59;;;;;;;28.80;27.30;;;;;;;;;;5117843;27;20128;-54
2024/03/17 04:26:24;;;;;;;28.27;26.77;;;;;;;;;;5099547;27;20051;-55
2024/03/17 04:28:50;;;;;;;28.65;27.15;;;;;;;;;;5118116;27;20032;-59
2024/03/17 04:31:15;;;;;;;25.45;24.08;;;;;;;;;;5117697;27;20625;-54
2024/03/17 04:33:40;;;;;;;27.30;25.80;;;;;;;;;;5115302;27;20561;-55
2024/03/17 04:36:08;;;;;;;25.77;24.38;;;;;;;;;;5114320;27;20100;-52
2024/03/17 04:38:34;;;;;;;25.45;24.05;;;;;;;;;;5096586;27;20038;-54
2024/03/17 04:41:04;;;;;;;25.52;24.13;;;;;;;;;;5100376;27;20034;-55
2024/03/17 04:43:31;;;;;;;26.45;25.00;;;;;;;;;;5114692;27;20035;-53
2024/03/17 04:46:03;;;;;;;26.23;24.83;;;;;;;;;;5115283;27;20050;-55
2024/03/17 04:48:28;;;;;;;28.73;27.13;;;;;;;;;;5116123;27;20507;-53
2024/03/17 04:50:54;;;;;;;28.48;26.98;;;;;;;;;;5113529;27;20095;-55
2024/03/17 04:53:20;;;;;;;28.60;27.10;;;;;;;;;;5116326;27;20130;-54
2024/03/17 04:55:45;;;;;;;27.23;25.73;;;;;;;;;;5114631;27;20031;-53
2024/03/17 04:58:11;;;;;;;30.77;29.17;;;;;;;;;;5113793;27;20039;-59
2024/03/17 05:00:36;;;;;;;29.83;28.23;;;;;;;;;;5114118;27;20410;-59
2024/03/17 05:03:01;;;;;;;30.58;28.92;;;;;;;;;;5115237;27;20035;-51
2024/03/17 05:05:27;;;;;;;30.75;29.00;;;;;;;;;;5115643;27;20031;-59
2024/03/17 05:07:53;;;;;;;30.83;29.23;;;;;;;;;;5116330;27;20353;-59
2024/03/17 05:10:18;;;;;;;28.75;27.25;;;;;;;;;;5115841;27;20654;-59
2024/03/17 05:12:44;;;;;;;28.75;27.25;;;;;;;;;;5113885;27;20023;-59
2024/03/17 05:15:10;;;;;;;29.70;28.10;;;;;;;;;;5079660;27;20032;-59
2024/03/17 05:17:35;;;;;;;29.70;28.15;;;;;;;;;;5113793;27;20023;-59
2024/03/17 05:20:00;;;;;;;28.90;27.30;;;;;;;;;;5096469;27;20151;-59
2024/03/17 05:22:26;;;;;;;28.75;27.25;;;;;;;;;;5113249;27;20108;-54
2024/03/17 05:24:51;;;;;;;28.85;27.33;;;;;;;;;;5116026;27;20031;-54
2024/03/17 05:27:16;;;;;;;29.33;27.83;;;;;;;;;;5115461;27;20443;-52
2024/03/17 05:29:41;;;;;;;30.58;28.88;;;;;;;;;;5114537;27;20023;-53
2024/03/17 05:32:07;;;;;;;30.73;29.13;;;;;;;;;;5113633;27;20040;-53
2024/03/17 05:34:32;;;;;;;29.88;28.27;;;;;;;;;;5114171;27;20032;-55
2024/03/17 05:36:58;;;;;;;28.08;26.58;;;;;;;;;;5115418;27;20036;-54
2024/03/17 05:39:23;;;;;;;29.83;28.23;;;;;;;;;;5117351;27;20054;-59
2024/03/17 05:41:49;;;;;;;29.00;27.50;;;;;;;;;;5110681;27;20035;-59
2024/03/17 05:44:15;;;;;;;29.48;27.95;;;;;;;;;;5111791;27;21099;-58
2024/03/17 05:46:41;;;;;;;30.70;29.10;;;;;;;;;;5112543;27;20036;-59
2024/03/17 05:49:07;;;;;;;30.15;28.55;;;;;;;;;;5097838;27;20042;-59
2024/03/17 05:51:32;;;;;;;29.92;28.33;;;;;;;;;;5111552;27;20043;-59
2024/03/17 05:53:58;;;;;;;29.80;28.20;;;;;;;;;;5113410;27;20040;-59
2024/03/17 05:56:24;;;;;;;31.08;29.27;;;;;;;;;;5110755;27;20053;-53
2024/03/17 05:58:49;;;;;;;31.45;29.75;;;;;;;;;;5112834;27;20027;-56
2024/03/17 06:01:14;;;;;;;30.83;29.23;;;;;;;;;;5110792;27;20136;-54
2024/03/17 06:03:41;;;;;;;32.58;30.88;;;;;;;;;;5112893;27;20042;-56
2024/03/17 06:06:07;;;;;;;31.20;29.55;;;;;;;;;;5092212;27;20478;-56
2024/03/17 06:08:33;;;;;;;31.10;29.50;;;;;;;;;;5115346;27;20054;-55
2024/03/17 06:11:00;;;;;;;32.47;30.77;;;;;;;;;;5114350;27;20457;-58
2024/03/17 06:13:26;;;;;;;32.50;30.80;;;;;;;;;;5116673;27;20055;-58
2024/03/17 06:15:51;;;;;;;33.40;31.60;;;;;;;;;;5115429;27;20447;-59
2024/03/17 06:18:17;;;;;;;33.30;31.60;;;;;;;;;;5115484;27;20051;-59
2024/03/17 06:20:45;;;;;;;33.13;31.33;;;;;;;;;;5115157;27;20106;-58
2024/03/17 06:23:12;;;;;;;30.27;28.58;;;;;;;;;;5113461;27;20039;-58
2024/03/17 06:25:48;;;;;;;26.80;25.40;;;;;;;;;;5112233;27;20027;-59
2024/03/17 06:28:15;;;;;;;25.33;24.00;;;;;;;;;;5113421;27;20028;-55
2024/03/17 06:30:41;;;;;;;25.60;24.20;;;;;;;;;;5114296;27;20042;-58
2024/03/17 06:33:08;;;;;;;26.27;24.88;;;;;;;;;;5114550;27;20358;-52
2024/03/17 06:35:36;;;;;;;29.80;28.20;;;;;;;;;;5113815;27;20043;-52
2024/03/17 06:38:01;;;;;;;30.52;28.83;;;;;;;;;;5114370;27;20024;-51
2024/03/17 06:40:27;;;;;;;29.10;27.50;;;;;;;;;;5113722;27;20380;-58
2024/03/17 06:42:53;;;;;;;31.42;29.77;;;;;;;;;;5112275;27;20050;-49
2024/03/17 06:45:20;;;;;;;30.45;28.85;;;;;;;;;;5113748;27;20031;-52
2024/03/17 06:47:46;;;;;;;36.30;34.38;;;;;;;;;;5112984;27;20035;-52
2024/03/17 06:50:11;;;;;;;35.63;33.58;;;;;;;;;;5113139;27;20088;-54
2024/03/17 06:52:37;;;;;;;37.63;35.63;;;;;;;;;;5112838;27;20382;-52
2024/03/17 06:55:03;;;;;;;40.85;38.75;;;;;;;;;;5113876;27;20475;-53
2024/03/17 06:57:28;;;;;;;44.58;41.90;;;;;;;;;;5114818;27;20078;-52
2024/03/17 06:59:53;;;;;;;44.75;42.42;;;;;;;;;;5095182;27;20034;-54
2024/03/17 07:02:19;;;;;;;49.25;46.75;;;;;;;;;;5113207;27;20038;-55
2024/03/17 07:04:46;;;;;;;54.08;51.38;;;;;;;;;;5112984;27;20043;-55
2024/03/17 07:07:12;;;;;;;51.55;48.95;;;;;;;;;;5113124;27;20039;-54
2024/03/17 07:09:39;;;;;;;40.50;38.40;;;;;;;;;;5110874;27;20913;-55
2024/03/17 07:12:08;;;;;;;44.05;41.67;;;;;;;;;;5109958;27;20104;-51
2024/03/17 07:14:33;;;;;;;42.42;40.22;;;;;;;;;;5111457;27;20084;-54
2024/03/17 07:16:59;;;;;;;38.67;36.67;;;;;;;;;;5113565;27;20043;-52
2024/03/17 07:19:24;;;;;;;39.40;37.38;;;;;;;;;;5110892;27;20062;-52
2024/03/17 07:21:50;;;;;;;36.13;34.22;;;;;;;;;;5111420;28;20415;-55
2024/03/17 07:24:15;;;;;;;42.00;39.88;;;;;;;;;;5077451;28;20465;-53
2024/03/17 07:26:40;;;;;;;39.78;37.78;;;;;;;;;;5111427;28;20035;-54
2024/03/17 07:29:08;;;;;;;36.33;34.42;;;;;;;;;;5112598;28;20067;-51
2024/03/17 07:31:33;;;;;;;33.90;32.10;;;;;;;;;;5097979;28;20445;-53
2024/03/17 07:33:59;;;;;;;32.97;31.27;;;;;;;;;;5112640;28;20046;-55
2024/03/17 07:36:24;;;;;;;32.72;31.02;;;;;;;;;;5112529;28;20092;-54
2024/03/17 07:38:50;;;;;;;30.52;28.92;;;;;;;;;;5115842;28;20500;-54
2024/03/17 07:41:16;;;;;;;34.08;32.28;;;;;;;;;;5114247;28;20031;-55
2024/03/17 07:43:41;;;;;;;36.22;34.33;;;;;;;;;;5112870;28;20023;-55
2024/03/17 07:46:13;;;;;;;35.92;34.03;;;;;;;;;;5112754;28;20038;-52
2024/03/17 07:48:40;;;;;;;30.42;28.83;;;;;;;;;;5111538;28;20066;-56
2024/03/17 07:51:14;;;;;;;32.97;31.27;;;;;;;;;;5111190;28;20035;-54
2024/03/17 07:53:51;;;;;;;35.20;33.40;;;;;;;;;;5116884;28;20035;-55
2024/03/17 07:56:17;;;;;;;30.05;28.45;;;;;;;;;;5112614;28;20037;-53
2024/03/17 07:58:44;;;;;;;24.13;22.63;;;;;;;;;;5112816;28;20358;-55
2024/03/17 08:01:14;;;;;;;22.40;21.20;;;;;;;;;;5109203;28;20599;-55
2024/03/17 08:03:41;;;;;;;20.67;19.57;;;;;;;;;;5108576;28;20039;-55
2024/03/17 08:06:08;;;;;;;24.98;23.67;;;;;;;;;;5091907;28;20303;-56
2024/03/17 08:08:34;;;;;;;23.60;22.33;;;;;;;;;;5114523;28;20605;-54
2024/03/17 08:11:03;;;;;;;22.40;21.20;;;;;;;;;;5112378;28;20038;-56
2024/03/17 08:13:33;;;;;;;29.17;27.63;;;;;;;;;;5109035;28;20050;-56
2024/03/17 08:16:00;;;;;;;27.48;25.98;;;;;;;;;;5114255;27;20031;-51
2024/03/17 08:18:27;;;;;;;27.10;25.60;;;;;;;;;;5116493;27;20032;-53
2024/03/17 08:20:53;;;;;;;27.65;26.15;;;;;;;;;;5112661;27;20599;-53
2024/03/17 08:23:19;;;;;;;23.92;22.63;;;;;;;;;;5116501;27;20042;-56
2024/03/17 08:25:58;;;;;;;27.70;26.00;;;;;;;;;;5098878;27;20043;-56
2024/03/17 08:28:25;;;;;;;28.88;27.38;;;;;;;;;;5113894;27;20058;-52
2024/03/17 08:30:54;;;;;;;30.50;28.80;;;;;;;;;;5115892;27;20489;-58
2024/03/17 08:33:20;;;;;;;69.93;66.43;;;;;;;;;;5115820;27;20053;-55
2024/03/17 08:35:56;;;;;;;73.65;69.95;;;;;;;;;;5098430;27;20039;-58
2024/03/17 08:38:23;;;;;;;75.47;71.68;;;;;;;;;;5090189;27;20050;-55
2024/03/17 08:40:52;;;;;;;95.90;91.20;;;;;;;;;;5119605;27;20031;-55
2024/03/17 08:43:18;;;;;;;95.57;90.78;;;;;;;;;;5115437;27;20663;-57
2024/03/17 08:45:44;;;;;;;71.32;67.75;;;;;;;;;;5099859;27;20050;-56
2024/03/17 08:48:12;;;;;;;88.95;84.53;;;;;;;;;;5115642;27;20035;-58
2024/03/17 08:50:38;;;;;;;96.72;91.82;;;;;;;;;;5100015;27;20035;-54
2024/03/17 08:53:03;;;;;;;87.82;83.13;;;;;;;;;;5115486;27;20046;-57
2024/03/17 08:55:29;;;;;;;47.35;44.95;;;;;;;;;;5118232;27;20135;-57
2024/03/17 08:57:54;;;;;;;41.33;39.22;;;;;;;;;;5114797;27;20789;-57
2024/03/17 09:00:19;;;;;;;44.25;42.00;;;;;;;;;;5117175;27;20073;-56
2024/03/17 09:02:45;;;;;;;53.60;50.88;;;;;;;;;;5115440;27;20130;-57
2024/03/17 09:05:12;;;;;;;34.78;32.90;;;;;;;;;;5113332;27;20051;-54
2024/03/17 09:07:38;;;;;;;43.50;41.28;;;;;;;;;;5115430;27;20034;-56
2024/03/17 09:10:04;;;;;;;45.50;43.17;;;;;;;;;;5117041;27;20380;-57
2024/03/17 09:12:29;;;;;;;35.13;33.22;;;;;;;;;;5115102;27;20031;-57
2024/03/17 09:14:54;;;;;;;32.90;31.17;;;;;;;;;;5116623;27;20043;-57
2024/03/17 09:17:20;;;;;;;34.45;32.45;;;;;;;;;;5114430;27;20038;-57
2024/03/17 09:19:47;;;;;;;28.90;27.40;;;;;;;;;;5101803;27;20410;-57
2024/03/17 09:22:13;;;;;;;65.95;62.65;;;;;;;;;;5114638;27;20042;-55
2024/03/17 09:24:38;;;;;;;38.97;36.97;;;;;;;;;;5117946;27;20032;-55
2024/03/17 09:27:05;;;;;;;45.38;43.08;;;;;;;;;;5114232;27;20027;-56
2024/03/17 09:29:30;;;;;;;35.60;33.72;;;;;;;;;;5100817;27;20047;-57
2024/03/17 09:31:56;;;;;;;33.80;32.00;;;;;;;;;;5095784;27;20350;-56
2024/03/17 09:34:21;;;;;;;30.27;28.67;;;;;;;;;;5114265;27;20023;-57
2024/03/17 09:36:47;;;;;;;31.63;30.02;;;;;;;;;;5099470;27;20135;-54
2024/03/17 09:39:14;;;;;;;33.78;31.73;;;;;;;;;;5116032;27;20020;-56
2024/03/17 09:41:40;;;;;;;32.35;30.65;;;;;;;;;;5115533;27;20137;-56
2024/03/17 09:44:09;;;;;;;29.95;28.38;;;;;;;;;;5116668;27;20123;-58
2024/03/17 09:46:35;;;;;;;27.65;26.23;;;;;;;;;;5118305;27;20135;-57
2024/03/17 09:49:00;;;;;;;28.73;27.23;;;;;;;;;;5116624;27;20122;-58
2024/03/17 09:51:26;;;;;;;34.28;32.47;;;;;;;;;;5099576;27;20132;-58
2024/03/17 09:53:52;;;;;;;29.08;27.52;;;;;;;;;;5117809;27;20567;-55
2024/03/17 09:56:19;;;;;;;39.30;37.30;;;;;;;;;;5113484;27;20099;-55
2024/03/17 09:58:49;;;;;;;29.45;27.95;;;;;;;;;;5117048;27;20021;-53
2024/03/17 10:01:14;;;;;;;32.30;30.60;;;;;;;;;;5114749;27;20067;-56
2024/03/17 10:04:03;;;;;;;31.75;30.05;;;;;;;;;;5114793;27;20055;-56
2024/03/17 10:06:29;;;;;;;36.78;34.88;;;;;;;;;;5090328;27;20031;-55
2024/03/17 10:08:56;;;;;;;43.67;41.47;;;;;;;;;;5113682;27;20027;-55
2024/03/17 10:11:23;;;;;;;31.38;29.77;;;;;;;;;;5101127;27;20038;-55
2024/03/17 10:14:04;;;;;;;45.38;42.97;;;;;;;;;;5093429;27;20039;-56
2024/03/17 10:16:30;;;;;;;45.80;43.40;;;;;;;;;;5113519;27;20028;-55
2024/03/17 10:19:16;;;;;;;41.92;39.80;;;;;;;;;;5115105;27;20513;-56
2024/03/17 10:21:48;;;;;;;49.50;47.00;;;;;;;;;;5111671;27;20341;-58
2024/03/17 10:24:21;;;;;;;54.03;51.28;;;;;;;;;;5107038;27;20077;-56
2024/03/17 10:26:57;;;;;;;86.75;82.50;;;;;;;;;;5113125;27;20551;-57
2024/03/17 10:29:27;;;;;;;92.75;87.97;;;;;;;;;;5112576;27;20044;-57
2024/03/17 10:31:58;;;;;;;75.43;71.67;;;;;;;;;;5110857;27;20066;-57
2024/03/17 10:34:26;;;;;;;83.68;79.53;;;;;;;;;;5111171;27;20292;-57
2024/03/17 10:37:04;;;;;;;62.95;59.83;;;;;;;;;;5112992;27;20043;-57
2024/03/17 10:39:30;;;;;;;92.68;88.10;;;;;;;;;;5112496;27;20036;-58
2024/03/17 10:42:01;;;;;;;100.72;95.75;;;;;;;;;;5112329;27;20483;-60
2024/03/17 10:44:28;;;;;;;;;;;;;;;;;;5112578;27;20045;-60
2024/03/17 10:46:56;;;;;;;83.28;79.10;;;;;;;;;;5112750;27;19919;-59
2024/03/17 10:49:27;;;;;;;106.88;101.63;;;;;;;;;;5109783;27;20038;-57
2024/03/17 10:51:54;;;;;;;;;;;;;;;;;;5113470;27;20023;-57
2024/03/17 10:54:26;;;;;;;101.57;96.53;;;;;;;;;;5109845;27;20043;-57
2024/03/17 10:56:53;;;;;;;107.43;102.10;;;;;;;;;;5114291;27;20031;-58
2024/03/17 10:59:23;;;;;;;108.68;103.28;;;;;;;;;;5109047;27;20039;-59
2024/03/17 11:01:50;;;;;;;109.57;104.10;;;;;;;;;;5111993;27;20043;-58
2024/03/17 11:04:16;;;;;;;112.78;107.13;;;;;;;;;;5110184;27;20500;-60
2024/03/17 11:06:42;;;;;;;107.70;102.38;;;;;;;;;;5112353;27;20035;-58
2024/03/17 11:09:14;;;;;;;101.47;96.38;;;;;;;;;;5112382;27;20049;-57
2024/03/17 11:11:42;;;;;;;110.22;104.75;;;;;;;;;;5113766;27;20509;-59
2024/03/17 11:14:19;;;;;;;116.75;111.00;;;;;;;;;;5111965;27;20085;-58
2024/03/17 11:16:45;;;;;;;115.93;110.18;;;;;;;;;;5115279;27;20061;-58
2024/03/17 11:19:15;;;;;;;97.38;92.45;;;;;;;;;;5092853;28;20477;-58
2024/03/17 11:21:40;;;;;;;121.20;115.17;;;;;;;;;;5113971;27;20349;-57
2024/03/17 11:24:06;;;;;;;100.28;95.32;;;;;;;;;;5111575;27;20089;-59
2024/03/17 11:26:37;;;;;;;125.30;118.78;;;;;;;;;;5093833;28;20039;-58
2024/03/17 11:29:06;;;;;;;118.53;112.63;;;;;;;;;;5111459;28;20050;-59
2024/03/17 11:31:40;;;;;;;104.22;98.93;;;;;;;;;;5112285;28;20066;-59
2024/03/17 11:34:07;;;;;;;133.05;126.35;;;;;;;;;;5112844;28;20032;-59
2024/03/17 11:36:38;;;;;;;121.60;115.55;;;;;;;;;;5112940;28;20046;-59
2024/03/17 11:39:17;;;;;;;95.35;90.60;;;;;;;;;;5111839;28;20032;-59
2024/03/17 11:41:47;;;;;;;85.10;80.85;;;;;;;;;;5113666;28;20514;-59
2024/03/17 11:44:18;;;;;;;127.80;121.47;;;;;;;;;;5113988;28;20533;-59
2024/03/17 11:47:00;;;;;;;109.78;104.28;;;;;;;;;;5113224;28;20047;-59
2024/03/17 11:49:33;;;;;;;107.53;102.20;;;;;;;;;;5113580;27;20032;-59
2024/03/17 11:52:03;;;;;;;78.53;74.60;;;;;;;;;;5118062;27;20047;-59
2024/03/17 11:54:30;;;;;;;91.03;85.30;;;;;;;;;;5117558;27;20028;-59
2024/03/17 11:57:03;;;;;;;184.77;175.68;;;;;;;;;;5119089;27;20090;-59
2024/03/17 11:59:29;;;;;;;181.25;172.27;;;;;;;;;;5118220;27;20531;-59
2024/03/17 12:01:55;;;;;;;144.48;137.27;;;;;;;;;;5119377;27;20127;-59
2024/03/17 12:04:22;;;;;;;130.05;123.60;;;;;;;;;;5118237;27;20035;-59
2024/03/17 12:06:52;;;;;;;117.82;111.95;;;;;;;;;;5115538;27;20024;-59
2024/03/17 12:09:26;;;;;;;114.10;108.45;;;;;;;;;;5116305;27;20133;-59
2024/03/17 12:12:00;;;;;;;71.55;68.00;;;;;;;;;;5115235;27;20448;-59
2024/03/17 12:14:26;;;;;;;89.15;84.72;;;;;;;;;;5115609;27;20085;-59
2024/03/17 12:17:03;;;;;;;54.53;51.72;;;;;;;;;;5097754;27;20465;-59
2024/03/17 12:19:28;;;;;;;66.53;62.83;;;;;;;;;;5099610;27;20055;-58
2024/03/17 12:21:56;;;;;;;44.45;42.20;;;;;;;;;;5116651;27;20082;-59
2024/03/17 12:24:24;;;;;;;56.53;53.63;;;;;;;;;;5115917;27;20027;-58
2024/03/17 12:26:51;;;;;;;85.32;81.03;;;;;;;;;;5115311;27;20092;-59
2024/03/17 12:29:35;;;;;;;89.32;84.90;;;;;;;;;;5114832;27;20046;-59
2024/03/17 12:32:07;;;;;;;96.65;91.80;;;;;;;;;;5092746;27;20043;-59
2024/03/17 12:34:36;;;;;;;94.05;89.35;;;;;;;;;;5116642;27;20131;-59
2024/03/17 12:37:03;;;;;;;76.22;72.43;;;;;;;;;;5115953;27;20054;-59
2024/03/17 12:39:33;;;;;;;82.93;78.75;;;;;;;;;;5116460;27;20088;-58
2024/03/17 12:42:13;;;;;;;76.22;72.38;;;;;;;;;;5117159;27;20023;-59
2024/03/17 12:44:58;;;;;;;78.93;75.00;;;;;;;;;;5117629;27;20031;-59
2024/03/17 12:47:34;;;;;;;51.90;49.17;;;;;;;;;;5114814;27;20028;-59
2024/03/17 12:50:01;;;;;;;64.65;61.33;;;;;;;;;;5115298;27;20035;-59
2024/03/17 12:52:33;;;;;;;78.97;75.03;;;;;;;;;;5115318;27;20039;-60
2024/03/17 13:00:56;;;;;;;51.50;48.70;;;;;;;;;;5119873;27;20115;-59
2024/03/17 13:03:26;;;;;;;48.67;46.17;;;;;;;;;;5112682;27;20035;-59
2024/03/17 13:05:51;;;;;;;74.32;70.60;;;;;;;;;;5119889;27;20410;-60
2024/03/17 13:08:17;;;;;;;56.08;52.78;;;;;;;;;;5116808;27;20046;-58
2024/03/17 13:10:43;;;;;;;40.78;38.67;;;;;;;;;;5117565;27;20038;-58
2024/03/17 13:13:09;;;;;;;57.83;54.92;;;;;;;;;;5098057;27;20019;-57
2024/03/17 13:15:35;;;;;;;41.90;39.70;;;;;;;;;;5116271;27;20035;-57
2024/03/17 13:18:03;;;;;;;61.35;58.25;;;;;;;;;;5116594;27;20038;-57
2024/03/17 13:20:29;;;;;;;48.17;45.67;;;;;;;;;;5114367;27;20512;-59
2024/03/17 13:22:55;;;;;;;40.20;38.10;;;;;;;;;;5118180;27;20452;-58
2024/03/17 13:25:23;;;;;;;49.53;46.97;;;;;;;;;;5116576;27;20031;-58
2024/03/17 13:27:50;;;;;;;48.30;45.83;;;;;;;;;;5115415;27;20116;-58
2024/03/17 13:30:17;;;;;;;43.90;41.65;;;;;;;;;;5113401;27;20035;-58
2024/03/17 13:32:46;;;;;;;38.63;36.63;;;;;;;;;;5115699;27;20023;-58
2024/03/17 13:35:19;;;;;;;46.63;44.22;;;;;;;;;;5097894;27;20060;-58
2024/03/17 13:37:45;;;;;;;35.83;33.92;;;;;;;;;;5115388;27;20037;-58
2024/03/17 13:40:12;;;;;;;40.83;38.72;;;;;;;;;;5117588;27;20028;-58
2024/03/17 13:42:40;;;;;;;49.90;47.17;;;;;;;;;;5097010;27;20032;-57
2024/03/17 13:45:10;;;;;;;114.93;109.15;;;;;;;;;;5117873;27;20476;-58
2024/03/17 13:47:36;;;;;;;38.50;36.50;;;;;;;;;;5112869;27;20036;-57
2024/03/17 13:50:04;;;;;;;39.47;37.45;;;;;;;;;;5116061;27;20110;-58
2024/03/17 13:52:32;;;;;;;156.00;148.15;;;;;;;;;;5113560;27;20042;-58
2024/03/17 13:54:57;;;;;;;43.78;41.38;;;;;;;;;;5115059;27;20110;-58
2024/03/17 13:57:23;;;;;;;53.60;50.85;;;;;;;;;;5113405;27;20173;-57
2024/03/17 13:59:50;;;;;;;54.97;51.95;;;;;;;;;;5115833;27;21067;-58
2024/03/17 14:02:15;;;;;;;42.47;40.25;;;;;;;;;;5113365;27;20039;-58
2024/03/17 14:04:41;;;;;;;59.08;55.95;;;;;;;;;;5114936;27;20031;-58
2024/03/17 14:07:06;;;;;;;57.75;54.75;;;;;;;;;;5076920;27;20051;-58
2024/03/17 14:09:32;;;;;;;46.55;44.15;;;;;;;;;;5094547;27;20099;-59
2024/03/17 14:11:57;;;;;;;40.25;38.08;;;;;;;;;;5114387;27;20053;-60
2024/03/17 14:14:23;;;;;;;45.67;43.33;;;;;;;;;;5113736;27;20043;-61
2024/03/17 14:16:48;;;;;;;44.22;41.92;;;;;;;;;;5114969;27;20118;-58
2024/03/17 14:19:13;;;;;;;41.35;39.15;;;;;;;;;;5114347;27;20032;-58
2024/03/17 14:21:39;;;;;;;39.15;37.13;;;;;;;;;;5113339;27;20448;-58
2024/03/17 14:24:07;;;;;;;45.75;43.22;;;;;;;;;;5112527;27;20038;-58